Time;durP1;ratioP1;P1;durP2;ratioP2;P2;SDS_P1;SDS_P2;PMS_P1;PMS_P2;Temp;Humidity;BMP_temperature;BMP_pressure;BME280_temperature;BME280_humidity;BME280_pressure;Samples;Min_cycle;Max_cycle;Signal;HPM_P1;HPM_P2
2022/04/25 00:02:00;;;;;;;10.50;5.20;;;7.90;99.90;;;;;;5047825;28;20602;-69
2022/04/25 00:04:26;;;;;;;9.33;5.00;;;7.80;99.90;;;;;;5049514;28;20888;-69
2022/04/25 00:06:51;;;;;;;8.70;4.40;;;7.80;99.90;;;;;;5050456;28;20182;-69
2022/04/25 00:09:17;;;;;;;8.10;4.50;;;7.80;99.90;;;;;;5047366;28;20193;-69
2022/04/25 00:11:43;;;;;;;8.17;4.73;;;7.80;99.90;;;;;;5049760;28;20228;-69
2022/04/25 00:14:09;;;;;;;6.47;4.10;;;7.80;99.90;;;;;;5047731;28;20285;-69
2022/04/25 00:16:34;;;;;;;9.43;4.50;;;7.80;99.90;;;;;;5050340;28;20435;-69
2022/04/25 00:19:00;;;;;;;10.03;5.20;;;7.80;99.90;;;;;;5049970;28;20496;-66
2022/04/25 00:21:26;;;;;;;8.63;4.57;;;7.90;99.90;;;;;;5050220;28;20181;-67
2022/04/25 00:23:53;;;;;;;8.93;4.80;;;7.80;99.90;;;;;;5051347;28;20447;-66
2022/04/25 00:26:18;;;;;;;9.87;5.03;;;7.80;99.90;;;;;;5049566;28;20185;-67
2022/04/25 00:28:44;;;;;;;7.70;4.73;;;7.80;99.90;;;;;;5051785;28;20474;-67
2022/04/25 00:31:09;;;;;;;14.10;4.97;;;7.80;99.90;;;;;;5050570;28;20264;-66
2022/04/25 00:33:35;;;;;;;9.10;4.53;;;7.80;99.90;;;;;;5053190;28;20566;-67
2022/04/25 00:36:01;;;;;;;8.20;4.80;;;7.80;99.90;;;;;;5055525;28;20196;-67
2022/04/25 00:38:26;;;;;;;11.50;5.47;;;7.80;99.90;;;;;;5051341;28;20629;-67
2022/04/25 00:40:52;;;;;;;13.73;5.77;;;7.90;99.90;;;;;;5054058;28;20704;-67
2022/04/25 00:43:18;;;;;;;11.37;4.63;;;7.80;99.90;;;;;;5050034;28;20182;-67
2022/04/25 00:45:43;;;;;;;9.77;5.50;;;7.90;99.90;;;;;;5055295;28;20363;-67
2022/04/25 00:48:09;;;;;;;7.83;5.53;;;7.90;99.90;;;;;;5056455;28;20500;-67
2022/04/25 00:50:38;;;;;;;10.70;5.47;;;7.90;99.90;;;;;;5049011;28;20220;-66
2022/04/25 00:53:05;;;;;;;7.83;4.13;;;7.90;99.90;;;;;;5050727;28;20185;-67
2022/04/25 00:55:30;;;;;;;9.03;4.10;;;7.90;99.90;;;;;;5048916;28;20428;-67
2022/04/25 00:57:57;;;;;;;6.93;4.27;;;7.90;99.90;;;;;;5052054;28;20467;-69
2022/04/25 01:00:24;;;;;;;10.60;4.80;;;7.90;99.90;;;;;;5051687;28;20182;-69
2022/04/25 01:02:49;;;;;;;11.27;5.70;;;7.90;99.90;;;;;;5055249;28;20467;-69
2022/04/25 01:05:15;;;;;;;9.10;4.40;;;7.90;99.90;;;;;;5058084;28;21178;-69
2022/04/25 01:07:41;;;;;;;13.23;4.80;;;7.90;99.90;;;;;;5053964;28;20625;-70
2022/04/25 01:10:08;;;;;;;9.80;4.90;;;7.90;99.90;;;;;;5053433;28;20189;-70
2022/04/25 01:12:34;;;;;;;13.40;7.40;;;7.90;99.90;;;;;;5054255;28;20235;-67
2022/04/25 01:15:01;;;;;;;10.70;6.20;;;7.90;99.90;;;;;;5057702;28;20815;-67
2022/04/25 01:17:27;;;;;;;13.10;6.10;;;7.90;99.90;;;;;;5054807;28;20189;-67
2022/04/25 01:19:53;;;;;;;11.80;6.43;;;7.90;99.90;;;;;;5058676;28;20783;-67
2022/04/25 01:22:27;;;;;;;11.07;5.00;;;7.90;99.90;;;;;;5048771;28;20197;-67
2022/04/25 01:27:37;;;;;;;9.93;4.97;;;7.90;99.90;;;;;;5057047;28;20442;-67
2022/04/25 01:30:03;;;;;;;10.87;5.47;;;7.90;99.90;;;;;;5054547;28;20459;-67
2022/04/25 01:32:29;;;;;;;13.67;6.80;;;7.90;99.90;;;;;;5061689;28;20545;-67
2022/04/25 01:34:55;;;;;;;18.13;8.07;;;7.90;99.90;;;;;;5062445;28;20431;-67
2022/04/25 01:37:20;;;;;;;22.50;9.20;;;7.80;99.90;;;;;;5059239;28;20293;-67
2022/04/25 01:39:51;;;;;;;13.80;6.63;;;7.80;99.90;;;;;;5055460;28;20182;-67
2022/04/25 01:42:19;;;;;;;22.80;9.90;;;7.80;99.90;;;;;;5050700;28;20216;-67
2022/04/25 01:44:45;;;;;;;20.67;9.93;;;7.90;99.90;;;;;;5051216;28;20416;-68
2022/04/25 01:47:11;;;;;;;20.97;11.43;;;7.80;99.90;;;;;;5052311;28;20424;-67
2022/04/25 01:49:37;;;;;;;17.83;11.30;;;7.80;99.90;;;;;;5051348;28;20196;-67
2022/04/25 01:52:17;;;;;;;22.20;12.00;;;7.80;99.90;;;;;;5049821;28;20419;-68
2022/04/25 01:54:43;;;;;;;22.57;11.37;;;7.80;99.90;;;;;;5052321;28;20527;-67
2022/04/25 01:57:08;;;;;;;19.00;12.00;;;7.80;99.90;;;;;;5054499;28;20439;-68
2022/04/25 01:59:35;;;;;;;19.83;11.60;;;7.80;99.90;;;;;;5049763;28;20217;-68
2022/04/25 02:02:04;;;;;;;24.80;10.67;;;7.80;99.90;;;;;;5053600;28;20212;-67
2022/04/25 02:04:29;;;;;;;18.90;11.37;;;7.70;99.90;;;;;;5053919;28;21066;-67
2022/04/25 02:06:56;;;;;;;20.73;11.63;;;7.70;99.90;;;;;;5051312;28;20431;-68
2022/04/25 02:09:22;;;;;;;21.70;11.47;;;7.70;99.90;;;;;;5052899;28;20185;-67
2022/04/25 02:11:48;;;;;;;21.80;12.83;;;7.60;99.90;;;;;;5049880;28;20490;-67
2022/04/25 02:14:14;;;;;;;25.80;13.13;;;7.60;99.90;;;;;;5049783;28;20185;-67
2022/04/25 02:16:39;;;;;;;21.20;12.40;;;7.70;99.90;;;;;;5053836;28;20231;-68
2022/04/25 02:19:05;;;;;;;27.10;13.03;;;7.60;99.90;;;;;;5056420;28;20470;-67
2022/04/25 02:21:31;;;;;;;22.77;11.60;;;7.60;99.90;;;;;;5054897;28;20311;-67
2022/04/25 02:23:56;;;;;;;25.77;12.80;;;7.60;99.90;;;;;;5056386;28;20177;-67
2022/04/25 02:26:23;;;;;;;23.53;12.83;;;7.60;99.90;;;;;;5052130;28;20188;-68
2022/04/25 02:28:48;;;;;;;23.13;12.10;;;7.50;99.90;;;;;;5055599;28;20194;-68
2022/04/25 02:31:15;;;;;;;19.97;11.80;;;7.40;99.90;;;;;;5059039;28;20426;-67
2022/04/25 02:33:41;;;;;;;26.27;12.83;;;7.30;99.90;;;;;;5057316;28;20189;-67
2022/04/25 02:36:08;;;;;;;31.77;14.03;;;7.30;99.90;;;;;;5052867;28;20434;-67
2022/04/25 02:38:35;;;;;;;27.33;13.27;;;7.20;99.90;;;;;;5053454;28;20475;-67
2022/04/25 02:41:04;;;;;;;24.90;14.00;;;7.10;99.90;;;;;;5055806;28;20447;-67
2022/04/25 02:43:36;;;;;;;27.70;14.40;;;7.00;99.90;;;;;;5049483;28;20440;-67
2022/04/25 02:46:03;;;;;;;25.90;14.80;;;6.90;99.90;;;;;;5049447;28;20490;-67
2022/04/25 02:48:30;;;;;;;26.43;12.20;;;7.00;99.90;;;;;;5049407;28;20420;-67
2022/04/25 02:50:56;;;;;;;28.07;14.30;;;7.00;99.90;;;;;;5049804;28;20478;-67
2022/04/25 02:53:24;;;;;;;29.87;14.37;;;7.00;99.90;;;;;;5049457;28;20419;-67
2022/04/25 02:55:51;;;;;;;29.27;15.20;;;7.00;99.90;;;;;;5050703;28;20424;-67
2022/04/25 02:58:17;;;;;;;27.70;15.07;;;7.00;99.90;;;;;;5048115;28;20964;-67
2022/04/25 03:00:45;;;;;;;36.53;14.07;;;7.00;99.90;;;;;;5050078;28;20958;-67
2022/04/25 03:03:12;;;;;;;32.57;12.93;;;7.00;99.90;;;;;;5047711;28;20428;-67
2022/04/25 03:05:39;;;;;;;27.53;13.17;;;7.00;99.90;;;;;;5051622;28;20427;-67
2022/04/25 03:08:05;;;;;;;24.30;12.27;;;7.00;99.90;;;;;;5052380;28;20424;-67
2022/04/25 03:10:30;;;;;;;27.83;12.57;;;7.00;99.90;;;;;;5059512;28;20972;-67
2022/04/25 03:12:56;;;;;;;24.23;13.47;;;7.00;99.90;;;;;;5051506;28;20213;-67
2022/04/25 03:15:22;;;;;;;23.50;12.57;;;7.00;99.90;;;;;;5051940;28;20925;-67
2022/04/25 03:17:47;;;;;;;31.53;15.00;;;7.00;99.90;;;;;;5052347;28;20256;-67
2022/04/25 03:20:14;;;;;;;33.30;14.47;;;7.00;99.90;;;;;;5052488;28;20283;-68
2022/04/25 03:22:39;;;;;;;21.70;11.30;;;7.00;99.90;;;;;;5048024;28;20219;-67
2022/04/25 03:25:06;;;;;;;27.17;14.00;;;7.00;99.90;;;;;;5053998;28;20423;-68
2022/04/25 03:27:32;;;;;;;26.60;12.30;;;6.90;99.90;;;;;;5053197;28;20182;-68
2022/04/25 03:29:57;;;;;;;27.80;11.60;;;6.90;99.90;;;;;;5047802;28;20464;-71
2022/04/25 03:32:23;;;;;;;26.97;13.83;;;6.70;99.90;;;;;;5054766;28;20232;-68
2022/04/25 03:34:48;;;;;;;26.50;14.60;;;6.70;99.90;;;;;;5048606;28;20485;-67
2022/04/25 03:37:14;;;;;;;26.07;13.87;;;6.70;99.90;;;;;;5047598;28;20239;-67
2022/04/25 03:39:40;;;;;;;21.80;12.03;;;6.60;99.90;;;;;;5047661;28;20216;-67
2022/04/25 03:42:05;;;;;;;29.40;14.27;;;6.50;99.90;;;;;;5047627;28;20188;-67
2022/04/25 03:44:31;;;;;;;25.03;13.20;;;6.50;99.90;;;;;;5048381;28;20728;-67
2022/04/25 03:46:57;;;;;;;28.17;15.00;;;6.50;99.90;;;;;;5047611;28;20190;-67
2022/04/25 03:49:22;;;;;;;32.60;14.90;;;6.50;99.90;;;;;;5049281;28;20609;-68
2022/04/25 03:51:48;;;;;;;27.07;13.43;;;6.50;99.90;;;;;;5047081;28;20197;-67
2022/04/25 03:57:09;;;;;;;36.20;13.93;;;6.50;99.90;;;;;;5049434;28;20181;-67
2022/04/25 03:57:12;;;;;;;25.77;12.47;;;6.40;99.90;;;;;;5051138;28;20311;-67
2022/04/25 03:59:38;;;;;;;30.63;14.53;;;6.50;99.90;;;;;;5041281;28;20463;-67
2022/04/25 04:02:04;;;;;;;25.33;14.30;;;6.50;99.90;;;;;;5053959;28;20443;-68
2022/04/25 04:04:30;;;;;;;27.57;12.43;;;6.40;99.90;;;;;;5052607;28;20420;-67
2022/04/25 04:06:55;;;;;;;24.63;12.07;;;6.50;99.90;;;;;;5055759;28;20441;-68
2022/04/25 04:12:05;;;;;;;34.57;16.40;;;6.50;99.90;;;;;;5042808;28;20653;-67
2022/04/25 04:14:31;;;;;;;35.70;16.00;;;6.50;99.90;;;;;;5047209;28;20440;-68
2022/04/25 04:16:58;;;;;;;37.70;17.30;;;6.50;99.90;;;;;;5058682;28;20212;-67
2022/04/25 04:19:24;;;;;;;24.30;13.50;;;6.50;99.90;;;;;;5052893;28;20201;-67
2022/04/25 04:21:50;;;;;;;27.60;12.80;;;6.50;99.90;;;;;;5046574;28;20474;-67
2022/04/25 04:24:15;;;;;;;30.17;15.90;;;6.50;99.90;;;;;;5053554;28;20182;-68
2022/04/25 04:26:42;;;;;;;40.23;17.40;;;6.50;99.90;;;;;;5046366;28;20251;-67
2022/04/25 04:29:08;;;;;;;37.10;18.03;;;6.50;99.90;;;;;;5046977;28;20295;-67
2022/04/25 04:31:34;;;;;;;33.37;15.13;;;6.60;99.90;;;;;;5046960;28;20452;-67
2022/04/25 04:33:59;;;;;;;25.83;12.80;;;6.60;99.90;;;;;;5047526;28;20264;-68
2022/04/25 04:36:26;;;;;;;29.60;14.40;;;6.60;99.90;;;;;;5049234;28;20216;-68
2022/04/25 04:38:52;;;;;;;28.23;12.67;;;6.60;99.90;;;;;;5045100;28;20210;-67
2022/04/25 04:41:18;;;;;;;25.40;14.27;;;6.60;99.90;;;;;;5050613;28;20424;-68
2022/04/25 04:43:43;;;;;;;27.57;15.40;;;6.70;99.90;;;;;;5047484;28;20416;-67
2022/04/25 04:46:10;;;;;;;27.67;14.43;;;6.70;99.90;;;;;;5049078;28;20182;-67
2022/04/25 04:48:35;;;;;;;28.77;12.80;;;6.70;99.90;;;;;;5049487;28;20182;-68
2022/04/25 04:51:01;;;;;;;31.53;14.77;;;6.70;99.90;;;;;;5053587;28;20750;-67
2022/04/25 04:53:27;;;;;;;26.87;13.20;;;6.70;99.90;;;;;;5050312;28;20186;-67
2022/04/25 04:55:53;;;;;;;24.17;12.10;;;6.70;99.90;;;;;;5054128;28;20236;-68
2022/04/25 04:58:19;;;;;;;24.60;12.73;;;6.70;99.90;;;;;;5047177;28;20313;-67
2022/04/25 05:00:46;;;;;;;28.40;14.60;;;6.70;99.90;;;;;;5050601;28;20544;-68
2022/04/25 05:03:15;;;;;;;25.30;12.10;;;6.80;99.90;;;;;;5051891;28;20185;-67
2022/04/25 05:05:42;;;;;;;22.67;12.73;;;6.90;99.90;;;;;;5050700;28;20571;-68
2022/04/25 05:08:08;;;;;;;25.13;13.93;;;7.00;99.90;;;;;;5046951;28;20428;-68
2022/04/25 05:10:33;;;;;;;31.13;12.33;;;7.00;99.90;;;;;;5046807;28;20826;-67
2022/04/25 05:12:59;;;;;;;33.93;14.40;;;7.00;99.90;;;;;;5051697;28;20653;-69
2022/04/25 05:15:25;;;;;;;27.37;13.77;;;7.00;99.90;;;;;;5058069;28;20228;-67
2022/04/25 05:17:53;;;;;;;31.63;15.70;;;7.00;99.90;;;;;;5053380;28;20210;-67
2022/04/25 05:20:22;;;;;;;22.60;13.30;;;7.00;99.90;;;;;;5046323;28;20260;-67
2022/04/25 05:22:49;;;;;;;25.40;12.60;;;7.10;99.90;;;;;;5047876;28;20420;-67
2022/04/25 05:25:19;;;;;;;27.33;14.90;;;7.20;99.90;;;;;;5046134;28;20454;-67
2022/04/25 05:27:47;;;;;;;29.30;13.47;;;7.20;99.90;;;;;;5048320;28;20427;-67
2022/04/25 05:30:17;;;;;;;28.30;15.37;;;7.30;99.90;;;;;;5047964;28;20447;-70
2022/04/25 05:32:54;;;;;;;23.63;13.00;;;7.30;99.90;;;;;;5049191;28;20419;-70
2022/04/25 05:35:23;;;;;;;23.17;12.37;;;7.40;99.90;;;;;;5050523;28;20431;-69
2022/04/25 05:37:49;;;;;;;28.67;13.83;;;7.40;99.90;;;;;;5048382;28;21028;-69
2022/04/25 05:40:19;;;;;;;24.13;11.30;;;7.40;99.90;;;;;;5048900;28;20438;-69
2022/04/25 05:42:46;;;;;;;25.60;12.77;;;7.50;99.90;;;;;;5055862;28;20411;-70
2022/04/25 05:45:14;;;;;;;25.53;13.37;;;7.50;99.90;;;;;;5050492;28;20420;-67
2022/04/25 05:47:40;;;;;;;27.70;14.57;;;7.70;99.90;;;;;;5050575;28;20503;-67
2022/04/25 05:52:52;;;;;;;21.93;12.00;;;7.70;99.90;;;;;;5052618;28;20574;-67
2022/04/25 05:55:18;;;;;;;24.93;13.17;;;7.90;99.90;;;;;;5054474;28;20412;-68
2022/04/25 05:57:44;;;;;;;25.20;14.17;;;7.90;99.90;;;;;;5055096;28;20455;-67
2022/04/25 06:00:11;;;;;;;32.80;14.10;;;8.00;99.90;;;;;;5054804;28;20507;-67
2022/04/25 06:02:41;;;;;;;23.60;12.90;;;8.00;99.90;;;;;;5057692;28;20737;-68
2022/04/25 06:05:10;;;;;;;24.87;13.07;;;8.00;99.90;;;;;;5059378;28;20908;-66
2022/04/25 06:07:36;;;;;;;25.70;13.43;;;8.10;99.90;;;;;;5057464;28;20428;-69
2022/04/25 06:10:03;;;;;;;24.60;12.83;;;8.00;99.90;;;;;;5058817;28;20485;-69
2022/04/25 06:12:29;;;;;;;26.23;12.30;;;8.10;99.90;;;;;;5056128;28;20912;-69
2022/04/25 06:15:00;;;;;;;18.10;9.90;;;8.20;99.90;;;;;;5049748;28;20439;-69
2022/04/25 06:17:26;;;;;;;26.13;12.40;;;8.20;99.90;;;;;;5049758;28;20452;-69
2022/04/25 06:19:52;;;;;;;21.40;11.70;;;8.30;99.90;;;;;;5050215;28;20546;-70
2022/04/25 06:22:21;;;;;;;21.40;10.87;;;8.40;99.90;;;;;;5050461;28;20510;-70
2022/04/25 06:24:47;;;;;;;20.73;9.73;;;8.50;99.90;;;;;;5050645;28;20903;-70
2022/04/25 06:27:14;;;;;;;19.90;9.43;;;8.60;99.90;;;;;;5050234;28;20420;-67
2022/04/25 06:29:42;;;;;;;17.80;8.03;;;8.60;99.90;;;;;;5051083;28;20190;-67
2022/04/25 06:32:08;;;;;;;18.73;10.03;;;8.60;99.90;;;;;;5055040;28;20431;-67
2022/04/25 06:34:34;;;;;;;18.53;9.93;;;8.60;99.90;;;;;;5051945;28;20472;-68
2022/04/25 06:37:00;;;;;;;20.97;10.10;;;8.60;99.90;;;;;;5051180;28;20420;-67
2022/04/25 06:39:25;;;;;;;20.70;10.67;;;8.60;99.90;;;;;;5045365;28;20209;-67
2022/04/25 06:41:51;;;;;;;23.90;10.97;;;8.70;99.90;;;;;;5052808;28;20204;-67
2022/04/25 06:44:17;;;;;;;19.10;9.93;;;8.70;99.90;;;;;;5053105;28;20657;-67
2022/04/25 06:46:43;;;;;;;17.20;10.27;;;8.70;99.90;;;;;;5049176;28;20232;-67
2022/04/25 06:49:21;;;;;;;18.13;10.50;;;8.80;99.90;;;;;;5056766;28;20181;-67
2022/04/25 06:51:58;;;;;;;21.33;10.70;;;8.80;99.90;;;;;;5048417;28;20221;-67
2022/04/25 06:54:24;;;;;;;20.63;9.87;;;8.90;99.90;;;;;;5053385;28;20420;-68
2022/04/25 06:56:51;;;;;;;16.10;7.83;;;9.00;99.90;;;;;;5054927;28;20432;-67
2022/04/25 06:59:18;;;;;;;17.93;8.77;;;9.00;99.90;;;;;;5057608;28;20471;-68
2022/04/25 07:01:44;;;;;;;19.47;9.33;;;9.20;99.90;;;;;;5048370;28;20432;-68
2022/04/25 07:04:11;;;;;;;15.17;8.30;;;9.30;99.90;;;;;;5055011;28;20751;-68
2022/04/25 07:06:37;;;;;;;15.13;8.17;;;9.50;99.90;;;;;;5054639;28;20177;-68
2022/04/25 07:09:04;;;;;;;16.50;9.03;;;9.70;99.90;;;;;;5048033;28;20436;-68
2022/04/25 07:11:30;;;;;;;17.30;10.83;;;9.80;99.90;;;;;;5048947;28;20434;-68
2022/04/25 07:13:55;;;;;;;15.37;8.60;;;9.90;99.90;;;;;;5049407;28;20753;-68
2022/04/25 07:16:24;;;;;;;15.87;8.67;;;9.80;99.90;;;;;;5049815;28;20256;-68
2022/04/25 07:18:50;;;;;;;20.00;8.57;;;9.70;99.90;;;;;;5049667;28;20653;-68
2022/04/25 07:29:28;;;;;;;23.70;9.60;;;9.70;99.90;;;;;;5052610;28;20417;-70
2022/04/25 07:31:54;;;;;;;17.50;10.00;;;9.80;99.90;;;;;;5050612;28;20436;-70
2022/04/25 07:34:20;;;;;;;21.03;11.03;;;9.90;99.90;;;;;;5051042;28;20207;-70
2022/04/25 07:36:53;;;;;;;13.93;7.97;;;9.90;99.90;;;;;;5050455;28;20689;-71
2022/04/25 07:39:19;;;;;;;20.13;8.97;;;9.90;99.90;;;;;;5054324;28;20509;-70
2022/04/25 07:41:45;;;;;;;13.37;8.30;;;9.90;99.90;;;;;;5051835;28;20529;-70
2022/04/25 07:44:11;;;;;;;15.77;8.50;;;9.80;99.90;;;;;;5055770;28;20431;-71
2022/04/25 07:46:40;;;;;;;19.43;9.83;;;9.80;99.90;;;;;;5047956;28;20420;-71
2022/04/25 07:49:09;;;;;;;16.63;8.30;;;9.80;99.90;;;;;;5056512;28;20207;-71
2022/04/25 07:51:36;;;;;;;13.87;8.10;;;9.70;99.90;;;;;;5052250;28;20428;-71
2022/04/25 07:54:04;;;;;;;15.67;8.83;;;9.70;99.90;;;;;;5051630;28;20468;-71
2022/04/25 07:56:31;;;;;;;16.00;7.63;;;9.80;99.90;;;;;;5052975;28;20424;-70
2022/04/25 07:58:58;;;;;;;16.23;8.23;;;9.80;99.90;;;;;;5050732;28;20869;-71
2022/04/25 08:01:24;;;;;;;11.90;7.17;;;9.90;99.90;;;;;;5053179;28;20578;-70
2022/04/25 08:03:49;;;;;;;15.90;8.57;;;10.00;99.90;;;;;;5052815;28;21091;-71
2022/04/25 08:06:15;;;;;;;20.60;9.17;;;10.00;99.90;;;;;;5046842;28;20191;-71
2022/04/25 08:08:42;;;;;;;20.47;9.17;;;10.10;99.90;;;;;;5049301;28;20288;-70
2022/04/25 08:11:08;;;;;;;17.13;9.60;;;10.20;99.90;;;;;;5052516;28;20192;-71
2022/04/25 08:19:02;;;;;;;14.33;7.10;;;12.30;99.90;;;;;;5044245;28;20513;-69
2022/04/25 08:21:27;;;;;;;14.93;8.63;;;13.30;99.90;;;;;;5050902;28;20427;-69
2022/04/25 08:23:53;;;;;;;13.47;6.40;;;13.60;99.90;;;;;;5049644;28;20497;-69
2022/04/25 08:26:21;;;;;;;10.00;6.13;;;13.50;99.90;;;;;;5048877;28;20185;-69
2022/04/25 08:28:46;;;;;;;9.70;5.57;;;13.30;99.90;;;;;;5049418;28;20547;-69
2022/04/25 08:31:13;;;;;;;11.73;6.40;;;14.00;99.90;;;;;;5053426;28;20428;-68
2022/04/25 08:33:39;;;;;;;12.30;7.30;;;13.90;99.90;;;;;;5046806;28;20219;-68
2022/04/25 08:36:05;;;;;;;10.57;6.40;;;13.50;99.90;;;;;;5050607;28;20427;-69
2022/04/25 08:38:31;;;;;;;11.80;6.60;;;13.60;99.90;;;;;;5044909;28;20460;-68
2022/04/25 08:40:57;;;;;;;9.93;5.83;;;13.20;99.90;;;;;;5055662;28;20189;-69
2022/04/25 08:43:23;;;;;;;12.03;7.27;;;13.10;99.90;;;;;;5052294;28;20292;-70
2022/04/25 08:45:50;;;;;;;11.97;7.03;;;13.20;99.90;;;;;;5052098;28;20536;-69
2022/04/25 08:48:19;;;;;;;18.30;6.20;;;13.00;99.90;;;;;;5052027;28;20197;-69
2022/04/25 08:50:47;;;;;;;14.50;6.50;;;12.90;99.90;;;;;;5056566;28;20957;-69
2022/04/25 08:53:13;;;;;;;15.03;6.37;;;12.70;99.90;;;;;;5053499;28;20928;-69
2022/04/25 08:55:40;;;;;;;11.60;7.20;;;12.70;99.90;;;;;;5057207;28;20427;-69
2022/04/25 08:58:06;;;;;;;13.87;7.80;;;12.60;99.90;;;;;;5047718;28;20901;-70
2022/04/25 09:00:32;;;;;;;16.27;7.60;;;12.40;99.90;;;;;;5050931;28;20478;-70
2022/04/25 09:02:59;;;;;;;15.93;7.90;;;12.20;99.90;;;;;;5054522;28;20527;-70
2022/04/25 09:05:25;;;;;;;19.17;7.43;;;12.10;99.90;;;;;;5048476;28;20428;-70
2022/04/25 09:07:52;;;;;;;10.60;6.23;;;11.80;99.90;;;;;;5047310;28;20421;-70
2022/04/25 09:10:19;;;;;;;28.03;8.53;;;11.80;99.90;;;;;;5047233;28;20423;-70
2022/04/25 09:12:46;;;;;;;11.60;6.30;;;11.80;99.90;;;;;;5047956;28;20428;-69
2022/04/25 09:15:12;;;;;;;14.97;6.40;;;11.70;99.90;;;;;;5047702;28;20463;-70
2022/04/25 09:17:38;;;;;;;15.50;7.20;;;11.70;99.90;;;;;;5051400;28;20958;-69
2022/04/25 09:20:08;;;;;;;13.53;7.30;;;11.70;99.90;;;;;;5052720;28;20190;-70
2022/04/25 09:22:39;;;;;;;13.47;7.20;;;12.40;99.90;;;;;;5050427;28;20428;-70
2022/04/25 09:25:16;;;;;;;12.43;6.20;;;13.50;99.90;;;;;;5052436;28;20424;-70
2022/04/25 09:27:42;;;;;;;10.20;6.20;;;14.20;99.70;;;;;;5054797;28;20427;-70
2022/04/25 09:30:22;;;;;;;14.20;7.27;;;14.90;98.10;;;;;;5055552;28;21062;-70
2022/04/25 09:32:52;;;;;;;9.60;5.80;;;15.30;97.50;;;;;;5058396;28;20435;-70
2022/04/25 09:35:28;;;;;;;9.77;4.80;;;16.10;97.50;;;;;;5052890;28;21049;-71
2022/04/25 09:37:56;;;;;;;10.23;5.87;;;16.70;95.60;;;;;;5057754;28;20470;-70
2022/04/25 09:40:23;;;;;;;8.87;5.07;;;17.00;92.20;;;;;;5054569;28;20421;-69
2022/04/25 09:43:08;;;;;;;10.33;5.60;;;16.90;93.20;;;;;;5060436;28;20430;-69
2022/04/25 09:45:35;;;;;;;9.73;5.73;;;16.60;93.00;;;;;;5055471;28;20431;-69
2022/04/25 09:48:01;;;;;;;6.27;3.80;;;16.70;92.30;;;;;;5053009;28;20435;-69
2022/04/25 09:50:27;;;;;;;10.03;5.30;;;16.60;93.00;;;;;;5062484;28;20415;-69
2022/04/25 09:52:57;;;;;;;9.40;4.60;;;16.70;91.90;;;;;;5053705;28;20184;-69
2022/04/25 09:55:28;;;;;;;7.70;4.40;;;16.40;90.90;;;;;;5058439;28;20758;-69
2022/04/25 09:57:54;;;;;;;9.20;4.50;;;15.70;91.90;;;;;;5059932;28;20756;-68
2022/04/25 10:00:33;;;;;;;8.03;4.90;;;15.30;92.70;;;;;;5049219;28;20440;-68
2022/04/25 10:03:01;;;;;;;10.37;5.33;;;15.20;94.00;;;;;;5059218;28;21293;-68
2022/04/25 10:05:45;;;;;;;7.87;4.83;;;15.30;92.30;;;;;;5050282;28;20515;-67
2022/04/25 10:08:13;;;;;;;8.70;4.80;;;15.20;91.50;;;;;;5050320;28;20432;-67
2022/04/25 10:10:50;;;;;;;8.50;4.73;;;14.70;92.60;;;;;;5051205;28;20720;-69
2022/04/25 10:13:16;;;;;;;14.00;5.43;;;14.30;94.10;;;;;;5053483;28;20437;-68
2022/04/25 10:15:43;;;;;;;10.50;5.93;;;14.20;94.50;;;;;;5049624;28;20444;-68
2022/04/25 10:18:10;;;;;;;13.87;6.20;;;14.00;95.00;;;;;;5051701;28;21782;-68
2022/04/25 10:20:37;;;;;;;9.63;5.77;;;13.80;95.20;;;;;;5049509;28;20424;-68
2022/04/25 10:23:05;;;;;;;13.53;6.10;;;13.50;96.00;;;;;;5052320;28;20474;-68
2022/04/25 10:25:31;;;;;;;8.87;4.90;;;13.40;96.00;;;;;;5051561;28;21245;-68
2022/04/25 10:28:01;;;;;;;10.60;6.30;;;13.30;96.60;;;;;;5054549;28;20495;-68
2022/04/25 10:30:33;;;;;;;11.73;6.40;;;13.00;97.90;;;;;;5045493;28;20538;-69
2022/04/25 10:33:22;;;;;;;10.90;6.37;;;12.90;98.50;;;;;;5056509;28;20408;-68
2022/04/25 10:35:50;;;;;;;13.20;7.50;;;12.70;99.50;;;;;;5057991;28;20416;-68
2022/04/25 10:38:50;;;;;;;9.77;6.07;;;12.50;99.90;;;;;;5052610;28;20456;-68
2022/04/25 10:44:18;;;;;;;15.53;7.50;;;12.30;99.90;;;;;;5057211;28;20418;-68
2022/04/25 10:47:05;;;;;;;12.60;7.20;;;12.10;99.90;;;;;;5050466;28;20908;-68
2022/04/25 10:49:37;;;;;;;14.67;7.97;;;12.10;99.90;;;;;;5048904;28;20191;-69
2022/04/25 10:52:38;;;;;;;;;;;;;;;;;;;;;
2022/04/25 10:55:13;;;;;;;12.70;7.43;;;11.90;99.90;;;;;;5055989;28;20526;-68
2022/04/25 10:58:04;;;;;;;15.60;8.20;;;11.80;99.90;;;;;;5049087;28;20428;-68
2022/04/25 11:00:41;;;;;;;18.43;8.90;;;11.70;99.90;;;;;;5048230;28;20905;-68
2022/04/25 11:03:08;;;;;;;17.80;9.30;;;11.60;99.90;;;;;;5052152;28;20458;-68
2022/04/25 11:05:33;;;;;;;16.67;8.73;;;11.40;99.90;;;;;;5050024;28;20420;-68
2022/04/25 11:08:20;;;;;;;17.17;9.33;;;11.30;99.90;;;;;;5050932;28;20419;-68
2022/04/25 11:10:51;;;;;;;19.73;9.67;;;11.20;99.90;;;;;;5044784;28;20197;-68
2022/04/25 11:13:18;;;;;;;15.53;8.10;;;11.00;99.90;;;;;;5054969;28;20428;-68
2022/04/25 11:15:46;;;;;;;18.07;9.47;;;11.10;99.90;;;;;;5048526;28;20493;-70
2022/04/25 11:18:33;;;;;;;15.00;8.40;;;10.90;99.90;;;;;;5055710;28;20990;-68
2022/04/25 11:21:07;;;;;;;18.60;10.77;;;10.80;99.90;;;;;;5048253;28;21050;-69
2022/04/25 11:23:43;;;;;;;20.07;8.60;;;10.60;99.90;;;;;;5050954;28;20450;-69
2022/04/25 11:26:11;;;;;;;13.10;8.70;;;10.50;99.90;;;;;;5052806;28;20510;-69
2022/04/25 11:28:57;;;;;;;16.97;9.07;;;10.30;99.90;;;;;;5054470;28;20422;-69
2022/04/25 11:31:28;;;;;;;14.53;8.27;;;10.20;99.90;;;;;;5047606;28;20424;-69
2022/04/25 11:34:01;;;;;;;13.43;7.90;;;10.10;99.90;;;;;;5048242;28;20435;-69
2022/04/25 11:36:27;;;;;;;13.13;7.67;;;9.90;99.90;;;;;;5059905;28;20833;-68
2022/04/25 11:41:40;;;;;;;13.93;7.20;;;9.60;99.90;;;;;;5050861;28;20416;-70
2022/04/25 11:44:06;;;;;;;17.60;8.53;;;9.70;99.90;;;;;;5047850;28;20507;-70
2022/04/25 11:46:35;;;;;;;13.40;7.30;;;9.70;99.90;;;;;;5048565;28;20503;-70
2022/04/25 11:49:01;;;;;;;14.13;8.83;;;9.70;99.90;;;;;;5048637;28;20510;-70
2022/04/25 11:51:31;;;;;;;13.50;7.50;;;9.80;99.90;;;;;;5047488;28;20428;-70
2022/04/25 11:54:01;;;;;;;13.07;8.17;;;9.90;99.90;;;;;;5049464;28;20507;-70
2022/04/25 11:56:27;;;;;;;12.90;7.57;;;10.00;99.90;;;;;;5049836;28;20424;-70
2022/04/25 11:58:55;;;;;;;11.20;8.00;;;10.10;99.90;;;;;;5050109;28;20578;-68
2022/04/25 12:01:33;;;;;;;11.87;7.20;;;10.10;99.90;;;;;;5050342;28;20490;-68
2022/04/25 12:04:14;;;;;;;12.30;6.47;;;10.20;99.90;;;;;;5053286;28;20861;-70
2022/04/25 12:06:48;;;;;;;12.90;7.30;;;10.30;99.90;;;;;;5049951;28;21211;-70
2022/04/25 12:17:37;;;;;;;5.33;3.80;;;10.40;99.90;;;;;;5050148;28;20418;-68
2022/04/25 12:20:04;;;;;;;7.93;4.03;;;10.70;99.90;;;;;;5058245;28;20467;-69
2022/04/25 12:22:30;;;;;;;4.93;3.00;;;10.60;99.90;;;;;;5047451;28;20766;-69
2022/04/25 12:25:19;;;;;;;4.37;2.90;;;10.60;99.90;;;;;;5051914;28;20435;-68
2022/04/25 12:28:12;;;;;;;5.07;3.07;;;10.60;99.90;;;;;;5049157;28;20447;-68
2022/04/25 12:30:56;;;;;;;7.47;4.33;;;10.60;99.90;;;;;;5046083;28;20428;-68
2022/04/25 12:33:42;;;;;;;7.17;4.47;;;10.60;99.90;;;;;;5047372;28;20515;-69
2022/04/25 12:36:22;;;;;;;8.57;4.50;;;10.60;99.90;;;;;;5058891;28;20438;-69
2022/04/25 12:39:08;;;;;;;5.83;3.73;;;10.80;99.90;;;;;;5053188;28;20464;-69
2022/04/25 12:41:35;;;;;;;7.50;3.53;;;10.80;99.90;;;;;;5049470;28;21229;-69
2022/04/25 12:44:09;;;;;;;4.20;3.27;;;11.00;99.90;;;;;;5053817;28;20416;-68
2022/04/25 12:46:49;;;;;;;10.40;3.47;;;11.20;99.90;;;;;;5047734;28;20474;-69
2022/04/25 12:49:31;;;;;;;6.20;3.73;;;11.40;99.90;;;;;;5057710;28;20530;-69
2022/04/25 12:51:59;;;;;;;5.20;3.03;;;11.70;99.90;;;;;;5054001;28;20510;-69
2022/04/25 12:54:40;;;;;;;7.23;3.53;;;12.20;99.90;;;;;;5054012;28;20916;-69
2022/04/25 12:57:24;;;;;;;3.10;1.80;;;12.60;99.90;;;;;;5055268;28;20454;-69
2022/04/25 12:59:52;;;;;;;8.30;2.70;;;12.90;99.90;;;;;;5050704;28;20460;-69
2022/04/25 13:02:39;;;;;;;4.67;2.37;;;12.90;99.90;;;;;;5057830;28;20411;-69
2022/04/25 13:05:09;;;;;;;2.53;1.67;;;13.10;99.90;;;;;;5055913;28;20424;-69
2022/04/25 13:07:41;;;;;;;3.40;2.00;;;13.10;99.90;;;;;;5057210;28;20816;-69
2022/04/25 13:10:19;;;;;;;3.13;1.20;;;13.10;99.90;;;;;;5061691;28;20423;-69
2022/04/25 13:12:46;;;;;;;4.93;1.70;;;13.20;99.10;;;;;;5048480;28;20435;-70
2022/04/25 13:15:16;;;;;;;2.53;1.53;;;13.20;99.90;;;;;;5053667;28;20439;-70
2022/04/25 13:17:42;;;;;;;4.10;2.03;;;13.10;99.90;;;;;;5058401;28;20927;-69
2022/04/25 13:20:11;;;;;;;4.70;2.07;;;13.20;99.90;;;;;;5062665;28;20466;-69
2022/04/25 13:22:37;;;;;;;2.83;1.77;;;13.20;99.90;;;;;;5053831;28;20420;-70
2022/04/25 13:25:04;;;;;;;6.70;2.13;;;13.50;99.90;;;;;;5064910;28;20427;-70
2022/04/25 13:27:31;;;;;;;4.60;1.77;;;13.70;99.90;;;;;;5053106;28;21101;-69